sensor_id;sensor_type;location;lat;lon;timestamp;P1;durP1;ratioP1;P2;durP2;ratioP2
30096;SDS011;16915;51.466;3.610;2022-08-06T00:15:52;2.20;;;1.60;;
30096;SDS011;16915;51.466;3.610;2022-08-06T00:18:23;2.00;;;1.55;;
30096;SDS011;16915;51.466;3.610;2022-08-06T00:20:58;6.40;;;1.90;;
30096;SDS011;16915;51.466;3.610;2022-08-06T05:07:45;2.85;;;0.63;;
30096;SDS011;16915;51.466;3.610;2022-08-06T05:25:04;2.92;;;0.73;;
30096;SDS011;16915;51.466;3.610;2022-08-06T05:28:01;1.25;;;0.70;;
30096;SDS011;16915;51.466;3.610;2022-08-06T05:34:11;1.58;;;0.77;;
30096;SDS011;16915;51.466;3.610;2022-08-06T06:11:04;1.70;;;0.60;;
30096;SDS011;16915;51.466;3.610;2022-08-06T06:37:08;3.63;;;0.57;;
30096;SDS011;16915;51.466;3.610;2022-08-06T06:50:10;1.75;;;0.30;;
30096;SDS011;16915;51.466;3.610;2022-08-06T06:52:43;2.58;;;0.20;;
30096;SDS011;16915;51.466;3.610;2022-08-06T06:58:25;1.45;;;0.30;;
30096;SDS011;16915;51.466;3.610;2022-08-06T07:04:16;0.65;;;0.30;;
30096;SDS011;16915;51.466;3.610;2022-08-06T07:06:46;1.77;;;0.35;;
30096;SDS011;16915;51.466;3.610;2022-08-06T07:09:15;1.05;;;0.30;;
30096;SDS011;16915;51.466;3.610;2022-08-06T07:41:03;1.15;;;0.30;;
30096;SDS011;16915;51.466;3.610;2022-08-06T07:44:06;1.13;;;0.30;;
30096;SDS011;16915;51.466;3.610;2022-08-06T08:39:12;1.20;;;0.20;;
30096;SDS011;16915;51.466;3.610;2022-08-06T08:42:19;0.70;;;0.28;;
30096;SDS011;16915;51.466;3.610;2022-08-06T08:45:01;0.70;;;0.20;;
30096;SDS011;16915;51.466;3.610;2022-08-06T08:47:27;1.10;;;0.20;;
30096;SDS011;16915;51.466;3.610;2022-08-06T08:49:54;2.10;;;0.30;;
30096;SDS011;16915;51.466;3.610;2022-08-06T08:52:31;2.03;;;0.30;;
30096;SDS011;16915;51.466;3.610;2022-08-06T08:55:18;3.85;;;0.73;;
30096;SDS011;16915;51.466;3.610;2022-08-06T08:57:49;0.30;;;0.20;;
30096;SDS011;16915;51.466;3.610;2022-08-06T09:00:20;0.70;;;0.15;;
30096;SDS011;16915;51.466;3.610;2022-08-06T09:03:06;0.98;;;0.20;;
30096;SDS011;16915;51.466;3.610;2022-08-06T09:05:32;0.25;;;0.10;;
30096;SDS011;16915;51.466;3.610;2022-08-06T09:08:27;1.65;;;0.30;;
30096;SDS011;16915;51.466;3.610;2022-08-06T09:11:01;0.25;;;0.10;;
30096;SDS011;16915;51.466;3.610;2022-08-06T09:13:37;0.85;;;0.20;;
30096;SDS011;16915;51.466;3.610;2022-08-06T09:16:04;1.60;;;0.22;;
30096;SDS011;16915;51.466;3.610;2022-08-06T09:18:30;2.15;;;0.20;;
30096;SDS011;16915;51.466;3.610;2022-08-06T09:28:35;1.75;;;0.20;;
30096;SDS011;16915;51.466;3.610;2022-08-06T09:34:07;1.95;;;0.25;;
30096;SDS011;16915;51.466;3.610;2022-08-06T09:36:48;2.50;;;0.30;;
30096;SDS011;16915;51.466;3.610;2022-08-06T09:45:31;0.93;;;0.20;;
30096;SDS011;16915;51.466;3.610;2022-08-06T09:51:25;1.27;;;0.28;;
30096;SDS011;16915;51.466;3.610;2022-08-06T09:53:58;0.98;;;0.20;;
30096;SDS011;16915;51.466;3.610;2022-08-06T09:56:25;0.85;;;0.30;;
30096;SDS011;16915;51.466;3.610;2022-08-06T09:58:56;0.50;;;0.25;;
30096;SDS011;16915;51.466;3.610;2022-08-06T10:01:28;0.60;;;0.40;;
30096;SDS011;16915;51.466;3.610;2022-08-06T10:03:57;2.05;;;0.22;;
30096;SDS011;16915;51.466;3.610;2022-08-06T10:06:29;2.25;;;0.38;;
30096;SDS011;16915;51.466;3.610;2022-08-06T10:09:06;1.33;;;0.50;;
30096;SDS011;16915;51.466;3.610;2022-08-06T10:20:59;0.80;;;0.30;;
30096;SDS011;16915;51.466;3.610;2022-08-06T10:23:49;1.75;;;0.40;;
30096;SDS011;16915;51.466;3.610;2022-08-06T10:30:17;0.90;;;0.30;;
30096;SDS011;16915;51.466;3.610;2022-08-06T10:35:50;2.13;;;0.40;;
30096;SDS011;16915;51.466;3.610;2022-08-06T10:38:38;1.20;;;0.40;;
30096;SDS011;16915;51.466;3.610;2022-08-06T10:41:34;0.80;;;0.20;;
30096;SDS011;16915;51.466;3.610;2022-08-06T10:51:04;0.52;;;0.40;;
30096;SDS011;16915;51.466;3.610;2022-08-06T10:53:51;0.90;;;0.52;;
30096;SDS011;16915;51.466;3.610;2022-08-06T10:56:17;0.88;;;0.30;;
30096;SDS011;16915;51.466;3.610;2022-08-06T10:58:46;2.03;;;0.40;;
30096;SDS011;16915;51.466;3.610;2022-08-06T11:08:15;0.30;;;0.30;;
30096;SDS011;16915;51.466;3.610;2022-08-06T11:14:10;3.13;;;0.30;;
30096;SDS011;16915;51.466;3.610;2022-08-06T11:16:36;1.65;;;0.20;;
30096;SDS011;16915;51.466;3.610;2022-08-06T11:35:46;0.57;;;0.57;;
30096;SDS011;16915;51.466;3.610;2022-08-06T11:38:55;0.85;;;0.40;;
30096;SDS011;16915;51.466;3.610;2022-08-06T11:41:31;1.67;;;0.50;;
30096;SDS011;16915;51.466;3.610;2022-08-06T11:44:07;1.35;;;0.43;;
30096;SDS011;16915;51.466;3.610;2022-08-06T11:46:37;1.48;;;0.80;;
30096;SDS011;16915;51.466;3.610;2022-08-06T11:55:00;1.02;;;0.88;;
30096;SDS011;16915;51.466;3.610;2022-08-06T12:00:35;0.75;;;0.55;;
30096;SDS011;16915;51.466;3.610;2022-08-06T13:24:25;1.70;;;0.75;;
30096;SDS011;16915;51.466;3.610;2022-08-06T14:41:59;1.77;;;0.55;;
30096;SDS011;16915;51.466;3.610;2022-08-06T14:48:03;1.48;;;0.70;;
30096;SDS011;16915;51.466;3.610;2022-08-06T15:52:07;0.45;;;0.30;;
30096;SDS011;16915;51.466;3.610;2022-08-06T18:54:17;1.17;;;0.88;;
30096;SDS011;16915;51.466;3.610;2022-08-06T19:21:39;1.65;;;0.73;;
30096;SDS011;16915;51.466;3.610;2022-08-06T19:45:32;1.43;;;0.80;;
30096;SDS011;16915;51.466;3.610;2022-08-06T19:47:58;0.85;;;0.70;;
30096;SDS011;16915;51.466;3.610;2022-08-06T19:50:26;1.35;;;0.60;;
30096;SDS011;16915;51.466;3.610;2022-08-06T19:52:52;1.23;;;0.80;;
30096;SDS011;16915;51.466;3.610;2022-08-06T19:55:18;2.17;;;0.90;;
30096;SDS011;16915;51.466;3.610;2022-08-06T19:57:46;3.50;;;0.95;;
30096;SDS011;16915;51.466;3.610;2022-08-06T20:00:15;1.20;;;0.77;;
30096;SDS011;16915;51.466;3.610;2022-08-06T20:02:46;0.93;;;0.63;;
30096;SDS011;16915;51.466;3.610;2022-08-06T20:05:23;0.75;;;0.65;;
30096;SDS011;16915;51.466;3.610;2022-08-06T20:07:58;2.13;;;0.70;;
30096;SDS011;16915;51.466;3.610;2022-08-06T20:10:24;2.75;;;0.77;;
30096;SDS011;16915;51.466;3.610;2022-08-06T20:12:54;1.30;;;0.80;;
30096;SDS011;16915;51.466;3.610;2022-08-06T20:15:23;2.25;;;0.90;;
30096;SDS011;16915;51.466;3.610;2022-08-06T20:17:55;2.35;;;0.93;;
30096;SDS011;16915;51.466;3.610;2022-08-06T20:20:22;1.65;;;0.85;;
30096;SDS011;16915;51.466;3.610;2022-08-06T20:22:49;2.28;;;1.10;;
30096;SDS011;16915;51.466;3.610;2022-08-06T20:25:18;2.22;;;1.10;;
30096;SDS011;16915;51.466;3.610;2022-08-06T20:27:45;2.20;;;1.00;;
30096;SDS011;16915;51.466;3.610;2022-08-06T20:30:14;2.10;;;0.75;;
30096;SDS011;16915;51.466;3.610;2022-08-06T20:32:39;1.65;;;0.90;;
30096;SDS011;16915;51.466;3.610;2022-08-06T20:35:06;1.20;;;0.88;;
30096;SDS011;16915;51.466;3.610;2022-08-06T20:37:44;1.73;;;1.00;;
30096;SDS011;16915;51.466;3.610;2022-08-06T20:40:10;2.50;;;1.05;;
30096;SDS011;16915;51.466;3.610;2022-08-06T20:42:41;2.60;;;1.20;;
30096;SDS011;16915;51.466;3.610;2022-08-06T20:45:07;4.75;;;1.48;;
30096;SDS011;16915;51.466;3.610;2022-08-06T20:47:35;3.53;;;0.90;;
30096;SDS011;16915;51.466;3.610;2022-08-06T20:50:02;1.67;;;1.20;;
30096;SDS011;16915;51.466;3.610;2022-08-06T20:52:29;3.55;;;1.20;;
30096;SDS011;16915;51.466;3.610;2022-08-06T20:54:57;1.88;;;1.38;;
30096;SDS011;16915;51.466;3.610;2022-08-06T20:57:23;1.63;;;0.98;;
30096;SDS011;16915;51.466;3.610;2022-08-06T21:00:03;1.40;;;1.13;;
30096;SDS011;16915;51.466;3.610;2022-08-06T21:02:35;1.85;;;1.05;;
30096;SDS011;16915;51.466;3.610;2022-08-06T21:05:05;2.10;;;1.17;;
30096;SDS011;16915;51.466;3.610;2022-08-06T21:07:34;1.30;;;1.00;;
30096;SDS011;16915;51.466;3.610;2022-08-06T21:10:03;2.15;;;0.95;;
30096;SDS011;16915;51.466;3.610;2022-08-06T21:12:29;7.00;;;1.10;;
30096;SDS011;16915;51.466;3.610;2022-08-06T21:14:55;6.38;;;1.30;;
30096;SDS011;16915;51.466;3.610;2022-08-06T21:17:22;1.40;;;1.00;;
30096;SDS011;16915;51.466;3.610;2022-08-06T21:19:58;2.72;;;1.50;;
30096;SDS011;16915;51.466;3.610;2022-08-06T21:22:34;1.42;;;1.33;;
30096;SDS011;16915;51.466;3.610;2022-08-06T21:25:05;3.95;;;1.50;;
30096;SDS011;16915;51.466;3.610;2022-08-06T21:27:40;1.50;;;1.25;;
30096;SDS011;16915;51.466;3.610;2022-08-06T21:30:52;1.83;;;1.30;;
30096;SDS011;16915;51.466;3.610;2022-08-06T21:33:21;2.47;;;1.20;;
30096;SDS011;16915;51.466;3.610;2022-08-06T21:35:52;2.08;;;1.25;;
30096;SDS011;16915;51.466;3.610;2022-08-06T21:38:46;1.33;;;1.17;;
30096;SDS011;16915;51.466;3.610;2022-08-06T21:41:20;2.05;;;1.25;;
30096;SDS011;16915;51.466;3.610;2022-08-06T21:43:58;3.15;;;2.38;;
30096;SDS011;16915;51.466;3.610;2022-08-06T21:46:30;2.10;;;1.40;;
30096;SDS011;16915;51.466;3.610;2022-08-06T21:49:06;1.80;;;1.33;;
30096;SDS011;16915;51.466;3.610;2022-08-06T21:51:36;2.20;;;1.10;;
30096;SDS011;16915;51.466;3.610;2022-08-06T21:54:02;2.03;;;1.10;;
30096;SDS011;16915;51.466;3.610;2022-08-06T21:56:54;2.38;;;1.38;;
30096;SDS011;16915;51.466;3.610;2022-08-06T21:59:29;1.42;;;1.27;;
30096;SDS011;16915;51.466;3.610;2022-08-06T22:01:55;2.15;;;1.23;;
30096;SDS011;16915;51.466;3.610;2022-08-06T22:04:22;2.20;;;1.40;;
30096;SDS011;16915;51.466;3.610;2022-08-06T22:06:52;2.28;;;1.48;;
30096;SDS011;16915;51.466;3.610;2022-08-06T22:09:18;3.25;;;1.60;;
30096;SDS011;16915;51.466;3.610;2022-08-06T22:11:45;4.10;;;1.30;;
30096;SDS011;16915;51.466;3.610;2022-08-06T22:14:16;1.70;;;1.35;;
30096;SDS011;16915;51.466;3.610;2022-08-06T22:16:50;3.20;;;1.52;;
30096;SDS011;16915;51.466;3.610;2022-08-06T22:19:29;2.28;;;1.73;;
30096;SDS011;16915;51.466;3.610;2022-08-06T22:21:56;1.30;;;1.20;;
30096;SDS011;16915;51.466;3.610;2022-08-06T22:24:26;2.80;;;1.58;;
30096;SDS011;16915;51.466;3.610;2022-08-06T22:27:07;2.03;;;1.33;;
30096;SDS011;16915;51.466;3.610;2022-08-06T22:29:42;2.20;;;1.67;;
30096;SDS011;16915;51.466;3.610;2022-08-06T22:32:30;3.45;;;1.73;;
30096;SDS011;16915;51.466;3.610;2022-08-06T22:34:58;2.75;;;1.80;;
30096;SDS011;16915;51.466;3.610;2022-08-06T22:37:42;2.05;;;1.50;;
30096;SDS011;16915;51.466;3.610;2022-08-06T22:40:40;3.40;;;1.83;;
30096;SDS011;16915;51.466;3.610;2022-08-06T22:43:12;2.20;;;1.88;;
30096;SDS011;16915;51.466;3.610;2022-08-06T22:49:42;3.22;;;1.73;;
30096;SDS011;16915;51.466;3.610;2022-08-06T22:55:59;2.85;;;1.90;;
30096;SDS011;16915;51.466;3.610;2022-08-06T22:59:15;6.43;;;2.33;;
30096;SDS011;16915;51.466;3.610;2022-08-06T23:02:08;3.95;;;2.53;;
30096;SDS011;16915;51.466;3.610;2022-08-06T23:05:07;4.32;;;2.97;;
30096;SDS011;16915;51.466;3.610;2022-08-06T23:11:58;2.95;;;2.72;;
30096;SDS011;16915;51.466;3.610;2022-08-06T23:15:01;3.65;;;2.33;;
30096;SDS011;16915;51.466;3.610;2022-08-06T23:18:11;2.63;;;2.03;;
30096;SDS011;16915;51.466;3.610;2022-08-06T23:21:40;2.15;;;2.03;;
30096;SDS011;16915;51.466;3.610;2022-08-06T23:24:55;2.83;;;1.90;;
30096;SDS011;16915;51.466;3.610;2022-08-06T23:27:52;2.65;;;2.15;;
30096;SDS011;16915;51.466;3.610;2022-08-06T23:31:23;3.08;;;1.80;;
30096;SDS011;16915;51.466;3.610;2022-08-06T23:38:20;2.30;;;2.00;;
30096;SDS011;16915;51.466;3.610;2022-08-06T23:41:11;4.03;;;2.13;;
30096;SDS011;16915;51.466;3.610;2022-08-06T23:44:40;2.50;;;1.60;;
30096;SDS011;16915;51.466;3.610;2022-08-06T23:47:32;1.73;;;1.60;;
30096;SDS011;16915;51.466;3.610;2022-08-06T23:50:48;3.30;;;1.75;;
30096;SDS011;16915;51.466;3.610;2022-08-06T23:54:22;2.80;;;1.73;;
30096;SDS011;16915;51.466;3.610;2022-08-06T23:57:31;2.42;;;1.70;;
